Weather at Spotted Bear USFS Airport

Public forecast

Using degrees Fahrenheit for public forecast. Weather courtesy of forecast.io.

Closest aviation weather report (METAR) to Spotted Bear USFS Airport

Closest report is Glacier Park International Airport, 34.9 nm (64.6 km) NW. Retrieved 2022/08/11 16:55 UTC (1 hour ago):

KGPI 111655Z VRB04KT 10SM CLR 24/14 A3013 RMK AO2 SLP186 T02390139

Closest aviation forecast (TAF) to Spotted Bear USFS Airport

Closest forecast is Glacier Park International Airport, 34.9 nm (64.6 km) NW. Retrieved 2022/08/11 12:27 UTC (5 hours ago):

TAF KGPI 111123Z 1112/1212 00000KT P6SM SKC FM111900 17010KT P6SM SCT200 FM112300 19008KT P6SM BKN100 PROB30 1123/1204 28012G22KT P6SM -TSRA BKN050CB FM120400 VRB03KT P6SM BKN100